sensor_id;sensor_type;location;lat;lon;timestamp;temperature;humidity
31379;DHT22;61664;48.112;11.662;2023-05-07T00:02:25;16.00;76.90
31379;DHT22;61664;48.112;11.662;2023-05-07T00:04:53;16.00;77.10
31379;DHT22;61664;48.112;11.662;2023-05-07T00:07:20;16.00;77.20
31379;DHT22;61664;48.112;11.662;2023-05-07T00:09:46;16.00;77.30
31379;DHT22;61664;48.112;11.662;2023-05-07T00:12:13;16.00;77.30
31379;DHT22;61664;48.112;11.662;2023-05-07T00:14:40;16.00;77.30
31379;DHT22;61664;48.112;11.662;2023-05-07T00:17:08;16.00;77.30
31379;DHT22;61664;48.112;11.662;2023-05-07T00:19:34;16.00;77.30
31379;DHT22;61664;48.112;11.662;2023-05-07T00:22:01;16.00;77.20
31379;DHT22;61664;48.112;11.662;2023-05-07T00:24:28;16.00;77.20
31379;DHT22;61664;48.112;11.662;2023-05-07T00:26:55;16.00;77.30
31379;DHT22;61664;48.112;11.662;2023-05-07T00:29:24;16.00;77.40
31379;DHT22;61664;48.112;11.662;2023-05-07T00:31:51;16.00;77.50
31379;DHT22;61664;48.112;11.662;2023-05-07T00:34:20;16.00;77.60
31379;DHT22;61664;48.112;11.662;2023-05-07T00:36:47;16.00;77.60
31379;DHT22;61664;48.112;11.662;2023-05-07T00:39:14;16.00;77.60
31379;DHT22;61664;48.112;11.662;2023-05-07T00:41:41;16.00;77.50
31379;DHT22;61664;48.112;11.662;2023-05-07T00:44:08;16.00;77.50
31379;DHT22;61664;48.112;11.662;2023-05-07T00:46:35;16.00;77.50
31379;DHT22;61664;48.112;11.662;2023-05-07T00:49:02;16.00;77.20
31379;DHT22;61664;48.112;11.662;2023-05-07T00:51:30;16.00;77.10
31379;DHT22;61664;48.112;11.662;2023-05-07T00:53:57;16.00;77.00
31379;DHT22;61664;48.112;11.662;2023-05-07T00:56:24;16.00;77.20
31379;DHT22;61664;48.112;11.662;2023-05-07T00:58:51;15.90;77.20
31379;DHT22;61664;48.112;11.662;2023-05-07T01:01:19;16.00;77.30
31379;DHT22;61664;48.112;11.662;2023-05-07T01:03:46;15.90;77.20
31379;DHT22;61664;48.112;11.662;2023-05-07T01:06:14;15.90;77.20
31379;DHT22;61664;48.112;11.662;2023-05-07T01:08:44;15.90;77.20
31379;DHT22;61664;48.112;11.662;2023-05-07T01:11:12;15.90;77.30
31379;DHT22;61664;48.112;11.662;2023-05-07T01:13:39;15.90;77.30
31379;DHT22;61664;48.112;11.662;2023-05-07T01:16:08;15.80;77.10
31379;DHT22;61664;48.112;11.662;2023-05-07T01:18:36;15.90;77.10
31379;DHT22;61664;48.112;11.662;2023-05-07T01:21:04;15.90;77.30
31379;DHT22;61664;48.112;11.662;2023-05-07T01:23:33;15.80;77.10
31379;DHT22;61664;48.112;11.662;2023-05-07T01:26:02;15.80;77.10
31379;DHT22;61664;48.112;11.662;2023-05-07T01:28:29;15.80;77.30
31379;DHT22;61664;48.112;11.662;2023-05-07T01:31:00;15.80;77.40
31379;DHT22;61664;48.112;11.662;2023-05-07T01:33:31;15.80;77.10
31379;DHT22;61664;48.112;11.662;2023-05-07T01:36:01;15.80;77.50
31379;DHT22;61664;48.112;11.662;2023-05-07T01:38:33;15.80;77.60
31379;DHT22;61664;48.112;11.662;2023-05-07T01:41:01;15.70;77.50
31379;DHT22;61664;48.112;11.662;2023-05-07T01:43:30;15.70;77.90
31379;DHT22;61664;48.112;11.662;2023-05-07T01:45:57;15.70;77.40
31379;DHT22;61664;48.112;11.662;2023-05-07T01:48:26;15.70;78.00
31379;DHT22;61664;48.112;11.662;2023-05-07T01:50:53;15.70;77.40
31379;DHT22;61664;48.112;11.662;2023-05-07T01:53:21;15.70;77.30
31379;DHT22;61664;48.112;11.662;2023-05-07T01:55:48;15.60;77.30
31379;DHT22;61664;48.112;11.662;2023-05-07T01:58:15;15.70;77.40
31379;DHT22;61664;48.112;11.662;2023-05-07T02:00:42;15.60;77.70
31379;DHT22;61664;48.112;11.662;2023-05-07T02:03:09;15.60;77.50
31379;DHT22;61664;48.112;11.662;2023-05-07T02:05:36;15.60;77.50
31379;DHT22;61664;48.112;11.662;2023-05-07T02:08:03;15.60;77.50
31379;DHT22;61664;48.112;11.662;2023-05-07T02:10:30;15.60;77.50
31379;DHT22;61664;48.112;11.662;2023-05-07T02:12:57;15.50;77.50
31379;DHT22;61664;48.112;11.662;2023-05-07T02:15:24;15.50;77.50
31379;DHT22;61664;48.112;11.662;2023-05-07T02:18:03;15.50;77.50
31379;DHT22;61664;48.112;11.662;2023-05-07T02:20:33;15.50;76.20
31379;DHT22;61664;48.112;11.662;2023-05-07T02:22:59;15.40;77.00
31379;DHT22;61664;48.112;11.662;2023-05-07T02:25:27;15.40;77.10
31379;DHT22;61664;48.112;11.662;2023-05-07T02:27:53;15.30;77.30
31379;DHT22;61664;48.112;11.662;2023-05-07T02:30:20;15.20;77.60
31379;DHT22;61664;48.112;11.662;2023-05-07T02:32:48;15.20;77.80
31379;DHT22;61664;48.112;11.662;2023-05-07T02:35:14;15.10;77.80
31379;DHT22;61664;48.112;11.662;2023-05-07T02:37:41;15.10;77.80
31379;DHT22;61664;48.112;11.662;2023-05-07T02:40:09;15.10;77.90
31379;DHT22;61664;48.112;11.662;2023-05-07T02:42:37;15.00;78.20
31379;DHT22;61664;48.112;11.662;2023-05-07T02:45:04;15.00;78.20
31379;DHT22;61664;48.112;11.662;2023-05-07T02:47:31;15.00;78.40
31379;DHT22;61664;48.112;11.662;2023-05-07T02:49:58;15.00;78.50
31379;DHT22;61664;48.112;11.662;2023-05-07T02:52:25;14.90;78.50
31379;DHT22;61664;48.112;11.662;2023-05-07T02:54:52;14.90;78.50
31379;DHT22;61664;48.112;11.662;2023-05-07T02:57:19;14.90;78.50
31379;DHT22;61664;48.112;11.662;2023-05-07T02:59:46;14.90;78.70
31379;DHT22;61664;48.112;11.662;2023-05-07T03:02:13;14.90;78.70
31379;DHT22;61664;48.112;11.662;2023-05-07T03:04:43;14.90;78.60
31379;DHT22;61664;48.112;11.662;2023-05-07T03:07:10;14.90;78.60
31379;DHT22;61664;48.112;11.662;2023-05-07T03:09:36;14.90;78.70
31379;DHT22;61664;48.112;11.662;2023-05-07T03:12:03;14.80;78.80
31379;DHT22;61664;48.112;11.662;2023-05-07T03:14:30;14.80;78.90
31379;DHT22;61664;48.112;11.662;2023-05-07T03:16:57;14.80;79.00
31379;DHT22;61664;48.112;11.662;2023-05-07T03:19:24;14.80;79.00
31379;DHT22;61664;48.112;11.662;2023-05-07T03:21:51;14.80;79.10
31379;DHT22;61664;48.112;11.662;2023-05-07T03:24:18;14.80;79.60
31379;DHT22;61664;48.112;11.662;2023-05-07T03:26:45;14.80;79.30
31379;DHT22;61664;48.112;11.662;2023-05-07T03:29:11;14.80;79.40
31379;DHT22;61664;48.112;11.662;2023-05-07T03:31:38;14.80;79.50
31379;DHT22;61664;48.112;11.662;2023-05-07T03:34:05;14.80;79.40
31379;DHT22;61664;48.112;11.662;2023-05-07T03:36:32;14.80;79.40
31379;DHT22;61664;48.112;11.662;2023-05-07T03:38:59;14.80;79.40
31379;DHT22;61664;48.112;11.662;2023-05-07T03:41:26;14.80;79.30
31379;DHT22;61664;48.112;11.662;2023-05-07T03:43:53;14.80;79.30
31379;DHT22;61664;48.112;11.662;2023-05-07T03:46:20;14.80;79.20
31379;DHT22;61664;48.112;11.662;2023-05-07T03:48:47;14.80;79.20
31379;DHT22;61664;48.112;11.662;2023-05-07T03:51:14;14.80;79.30
31379;DHT22;61664;48.112;11.662;2023-05-07T03:53:44;14.80;79.20
31379;DHT22;61664;48.112;11.662;2023-05-07T03:56:11;14.80;79.20
31379;DHT22;61664;48.112;11.662;2023-05-07T03:58:38;14.80;79.30
31379;DHT22;61664;48.112;11.662;2023-05-07T04:01:05;14.80;79.40
31379;DHT22;61664;48.112;11.662;2023-05-07T04:03:31;14.80;79.30
31379;DHT22;61664;48.112;11.662;2023-05-07T04:05:59;14.80;79.30
31379;DHT22;61664;48.112;11.662;2023-05-07T04:08:26;14.70;79.30
31379;DHT22;61664;48.112;11.662;2023-05-07T04:10:57;14.70;79.20
31379;DHT22;61664;48.112;11.662;2023-05-07T04:13:25;14.80;78.80
31379;DHT22;61664;48.112;11.662;2023-05-07T04:15:53;14.70;79.30
31379;DHT22;61664;48.112;11.662;2023-05-07T04:18:21;14.70;79.30
31379;DHT22;61664;48.112;11.662;2023-05-07T04:20:48;14.70;79.40
31379;DHT22;61664;48.112;11.662;2023-05-07T04:23:18;14.70;79.50
31379;DHT22;61664;48.112;11.662;2023-05-07T04:25:45;14.80;79.60
31379;DHT22;61664;48.112;11.662;2023-05-07T04:28:12;14.80;79.50
31379;DHT22;61664;48.112;11.662;2023-05-07T04:30:39;14.80;79.60
31379;DHT22;61664;48.112;11.662;2023-05-07T04:33:07;14.80;79.70
31379;DHT22;61664;48.112;11.662;2023-05-07T04:35:35;14.80;79.60
31379;DHT22;61664;48.112;11.662;2023-05-07T04:38:02;14.90;79.70
31379;DHT22;61664;48.112;11.662;2023-05-07T04:40:29;14.90;79.60
31379;DHT22;61664;48.112;11.662;2023-05-07T04:42:56;14.90;79.60
31379;DHT22;61664;48.112;11.662;2023-05-07T04:45:23;14.90;80.10
31379;DHT22;61664;48.112;11.662;2023-05-07T04:47:50;15.00;79.80
31379;DHT22;61664;48.112;11.662;2023-05-07T04:50:17;15.00;79.80
31379;DHT22;61664;48.112;11.662;2023-05-07T04:52:46;15.00;79.80
31379;DHT22;61664;48.112;11.662;2023-05-07T04:55:12;15.00;79.80
31379;DHT22;61664;48.112;11.662;2023-05-07T04:57:39;15.10;79.70
31379;DHT22;61664;48.112;11.662;2023-05-07T05:00:08;15.10;79.50
31379;DHT22;61664;48.112;11.662;2023-05-07T05:02:36;15.10;79.30
31379;DHT22;61664;48.112;11.662;2023-05-07T05:05:03;15.10;79.10
31379;DHT22;61664;48.112;11.662;2023-05-07T05:07:30;15.10;78.90
31379;DHT22;61664;48.112;11.662;2023-05-07T05:09:57;15.10;78.90
31379;DHT22;61664;48.112;11.662;2023-05-07T05:12:24;15.10;79.00
31379;DHT22;61664;48.112;11.662;2023-05-07T05:14:51;15.10;79.10
31379;DHT22;61664;48.112;11.662;2023-05-07T05:17:18;15.10;79.10
31379;DHT22;61664;48.112;11.662;2023-05-07T05:19:45;15.10;79.20
31379;DHT22;61664;48.112;11.662;2023-05-07T05:22:12;15.00;79.10
31379;DHT22;61664;48.112;11.662;2023-05-07T05:24:39;15.10;79.50
31379;DHT22;61664;48.112;11.662;2023-05-07T05:27:05;15.00;79.70
31379;DHT22;61664;48.112;11.662;2023-05-07T05:29:32;15.00;80.00
31379;DHT22;61664;48.112;11.662;2023-05-07T05:31:59;15.10;80.30
31379;DHT22;61664;48.112;11.662;2023-05-07T05:34:26;15.20;80.50
31379;DHT22;61664;48.112;11.662;2023-05-07T05:36:54;15.20;80.50
31379;DHT22;61664;48.112;11.662;2023-05-07T05:39:21;15.30;80.40
31379;DHT22;61664;48.112;11.662;2023-05-07T05:41:49;15.30;80.40
31379;DHT22;61664;48.112;11.662;2023-05-07T05:44:16;15.40;80.60
31379;DHT22;61664;48.112;11.662;2023-05-07T05:46:43;15.50;80.60
31379;DHT22;61664;48.112;11.662;2023-05-07T05:49:10;15.60;80.50
31379;DHT22;61664;48.112;11.662;2023-05-07T05:51:37;15.60;80.20
31379;DHT22;61664;48.112;11.662;2023-05-07T05:54:04;15.70;80.30
31379;DHT22;61664;48.112;11.662;2023-05-07T05:56:31;15.80;81.10
31379;DHT22;61664;48.112;11.662;2023-05-07T05:58:58;15.80;80.60
31379;DHT22;61664;48.112;11.662;2023-05-07T06:01:25;15.90;80.80
31379;DHT22;61664;48.112;11.662;2023-05-07T06:03:52;16.00;80.90
31379;DHT22;61664;48.112;11.662;2023-05-07T06:06:19;16.10;81.00
31379;DHT22;61664;48.112;11.662;2023-05-07T06:08:45;16.20;81.00
31379;DHT22;61664;48.112;11.662;2023-05-07T06:11:12;16.20;80.90
31379;DHT22;61664;48.112;11.662;2023-05-07T06:13:39;16.40;81.00
31379;DHT22;61664;48.112;11.662;2023-05-07T06:16:06;16.40;80.90
31379;DHT22;61664;48.112;11.662;2023-05-07T06:18:33;16.60;81.00
31379;DHT22;61664;48.112;11.662;2023-05-07T06:21:02;16.60;81.10
31379;DHT22;61664;48.112;11.662;2023-05-07T06:23:29;16.70;81.70
31379;DHT22;61664;48.112;11.662;2023-05-07T06:25:56;16.90;81.20
31379;DHT22;61664;48.112;11.662;2023-05-07T06:28:23;17.00;81.00
31379;DHT22;61664;48.112;11.662;2023-05-07T06:30:50;17.10;80.90
31379;DHT22;61664;48.112;11.662;2023-05-07T06:33:17;17.30;80.80
31379;DHT22;61664;48.112;11.662;2023-05-07T06:35:44;17.30;80.70
31379;DHT22;61664;48.112;11.662;2023-05-07T06:38:11;17.50;80.80
31379;DHT22;61664;48.112;11.662;2023-05-07T06:40:38;17.60;80.60
31379;DHT22;61664;48.112;11.662;2023-05-07T06:43:05;17.70;80.40
31379;DHT22;61664;48.112;11.662;2023-05-07T06:45:32;17.80;80.20
31379;DHT22;61664;48.112;11.662;2023-05-07T06:47:59;17.90;80.10
31379;DHT22;61664;48.112;11.662;2023-05-07T06:50:26;18.10;80.00
31379;DHT22;61664;48.112;11.662;2023-05-07T06:52:53;18.20;79.90
31379;DHT22;61664;48.112;11.662;2023-05-07T06:55:21;18.30;79.80
31379;DHT22;61664;48.112;11.662;2023-05-07T06:57:48;18.40;79.70
31379;DHT22;61664;48.112;11.662;2023-05-07T07:00:15;18.60;79.50
31379;DHT22;61664;48.112;11.662;2023-05-07T07:02:42;18.70;79.20
31379;DHT22;61664;48.112;11.662;2023-05-07T07:05:09;18.80;79.00
31379;DHT22;61664;48.112;11.662;2023-05-07T07:07:37;18.90;78.40
31379;DHT22;61664;48.112;11.662;2023-05-07T07:10:04;19.00;77.90
31379;DHT22;61664;48.112;11.662;2023-05-07T07:12:31;19.20;77.80
31379;DHT22;61664;48.112;11.662;2023-05-07T07:14:58;19.20;77.60
31379;DHT22;61664;48.112;11.662;2023-05-07T07:17:25;19.40;77.60
31379;DHT22;61664;48.112;11.662;2023-05-07T07:19:52;19.40;77.40
31379;DHT22;61664;48.112;11.662;2023-05-07T07:22:19;19.60;77.30
31379;DHT22;61664;48.112;11.662;2023-05-07T07:24:46;19.70;77.10
31379;DHT22;61664;48.112;11.662;2023-05-07T07:27:18;19.80;77.30
31379;DHT22;61664;48.112;11.662;2023-05-07T07:29:45;19.90;75.40
31379;DHT22;61664;48.112;11.662;2023-05-07T07:32:14;20.00;77.30
31379;DHT22;61664;48.112;11.662;2023-05-07T07:34:41;20.20;77.50
31379;DHT22;61664;48.112;11.662;2023-05-07T07:37:11;20.30;77.30
31379;DHT22;61664;48.112;11.662;2023-05-07T07:39:42;20.50;75.10
31379;DHT22;61664;48.112;11.662;2023-05-07T07:42:09;20.70;73.70
31379;DHT22;61664;48.112;11.662;2023-05-07T07:44:36;20.80;75.40
31379;DHT22;61664;48.112;11.662;2023-05-07T07:47:02;20.90;75.00
31379;DHT22;61664;48.112;11.662;2023-05-07T07:49:29;21.00;74.80
31379;DHT22;61664;48.112;11.662;2023-05-07T07:51:56;21.10;74.20
31379;DHT22;61664;48.112;11.662;2023-05-07T07:54:27;21.20;74.00
31379;DHT22;61664;48.112;11.662;2023-05-07T07:56:59;21.40;74.00
31379;DHT22;61664;48.112;11.662;2023-05-07T07:59:32;21.50;71.20
31379;DHT22;61664;48.112;11.662;2023-05-07T08:01:59;21.60;73.40
31379;DHT22;61664;48.112;11.662;2023-05-07T08:04:31;21.80;73.70
31379;DHT22;61664;48.112;11.662;2023-05-07T08:07:01;21.90;70.80
31379;DHT22;61664;48.112;11.662;2023-05-07T08:09:46;22.10;72.50
31379;DHT22;61664;48.112;11.662;2023-05-07T08:12:14;22.30;68.10
31379;DHT22;61664;48.112;11.662;2023-05-07T08:14:41;22.40;73.00
31379;DHT22;61664;48.112;11.662;2023-05-07T08:17:08;22.60;72.30
31379;DHT22;61664;48.112;11.662;2023-05-07T08:19:36;22.70;72.40
31379;DHT22;61664;48.112;11.662;2023-05-07T08:22:03;22.90;72.50
31379;DHT22;61664;48.112;11.662;2023-05-07T08:24:32;23.10;72.10
31379;DHT22;61664;48.112;11.662;2023-05-07T08:26:59;23.30;71.90
31379;DHT22;61664;48.112;11.662;2023-05-07T08:29:25;23.50;72.40
31379;DHT22;61664;48.112;11.662;2023-05-07T08:31:52;23.80;72.40
31379;DHT22;61664;48.112;11.662;2023-05-07T08:34:21;24.10;72.40
31379;DHT22;61664;48.112;11.662;2023-05-07T08:36:48;24.60;71.80
31379;DHT22;61664;48.112;11.662;2023-05-07T08:39:16;25.00;71.30
31379;DHT22;61664;48.112;11.662;2023-05-07T08:41:46;25.60;71.20
31379;DHT22;61664;48.112;11.662;2023-05-07T08:44:16;26.10;67.20
31379;DHT22;61664;48.112;11.662;2023-05-07T08:46:48;26.70;67.10
31379;DHT22;61664;48.112;11.662;2023-05-07T08:49:20;27.20;65.90
31379;DHT22;61664;48.112;11.662;2023-05-07T08:51:48;27.60;65.50
31379;DHT22;61664;48.112;11.662;2023-05-07T08:54:18;28.10;65.70
31379;DHT22;61664;48.112;11.662;2023-05-07T08:56:47;28.50;62.30
31379;DHT22;61664;48.112;11.662;2023-05-07T08:59:14;29.00;63.50
31379;DHT22;61664;48.112;11.662;2023-05-07T09:01:41;29.40;62.80
31379;DHT22;61664;48.112;11.662;2023-05-07T09:04:08;29.80;61.80
31379;DHT22;61664;48.112;11.662;2023-05-07T09:06:36;30.20;61.50
31379;DHT22;61664;48.112;11.662;2023-05-07T09:09:04;30.60;61.00
31379;DHT22;61664;48.112;11.662;2023-05-07T09:11:32;30.90;59.20
31379;DHT22;61664;48.112;11.662;2023-05-07T09:13:58;31.30;58.40
31379;DHT22;61664;48.112;11.662;2023-05-07T09:16:30;31.50;57.70
31379;DHT22;61664;48.112;11.662;2023-05-07T09:18:58;31.80;57.10
31379;DHT22;61664;48.112;11.662;2023-05-07T09:21:29;32.00;56.80
31379;DHT22;61664;48.112;11.662;2023-05-07T09:23:56;32.30;57.10
31379;DHT22;61664;48.112;11.662;2023-05-07T09:26:24;32.60;56.90
31379;DHT22;61664;48.112;11.662;2023-05-07T09:28:51;32.90;56.40
31379;DHT22;61664;48.112;11.662;2023-05-07T09:31:18;33.10;55.90
31379;DHT22;61664;48.112;11.662;2023-05-07T09:33:47;33.40;54.50
31379;DHT22;61664;48.112;11.662;2023-05-07T09:36:14;33.60;53.60
31379;DHT22;61664;48.112;11.662;2023-05-07T09:38:41;33.80;52.30
31379;DHT22;61664;48.112;11.662;2023-05-07T09:41:12;33.80;51.60
31379;DHT22;61664;48.112;11.662;2023-05-07T09:43:40;33.90;51.50
31379;DHT22;61664;48.112;11.662;2023-05-07T09:46:14;33.90;51.60
31379;DHT22;61664;48.112;11.662;2023-05-07T09:48:44;33.90;47.50
31379;DHT22;61664;48.112;11.662;2023-05-07T09:51:30;33.90;50.70
31379;DHT22;61664;48.112;11.662;2023-05-07T09:54:00;34.00;50.80
31379;DHT22;61664;48.112;11.662;2023-05-07T09:56:30;33.90;50.80
31379;DHT22;61664;48.112;11.662;2023-05-07T09:59:00;33.90;51.30
31379;DHT22;61664;48.112;11.662;2023-05-07T10:01:27;33.90;50.10
31379;DHT22;61664;48.112;11.662;2023-05-07T10:03:56;33.90;51.10
31379;DHT22;61664;48.112;11.662;2023-05-07T10:06:25;33.80;49.30
31379;DHT22;61664;48.112;11.662;2023-05-07T10:08:53;33.70;49.90
31379;DHT22;61664;48.112;11.662;2023-05-07T10:11:22;33.60;50.20
31379;DHT22;61664;48.112;11.662;2023-05-07T10:13:50;33.60;50.00
31379;DHT22;61664;48.112;11.662;2023-05-07T10:16:19;33.60;50.80
31379;DHT22;61664;48.112;11.662;2023-05-07T10:18:47;33.70;50.60
31379;DHT22;61664;48.112;11.662;2023-05-07T10:21:18;33.80;50.10
31379;DHT22;61664;48.112;11.662;2023-05-07T10:23:51;33.80;49.80
31379;DHT22;61664;48.112;11.662;2023-05-07T10:26:24;33.80;46.80
31379;DHT22;61664;48.112;11.662;2023-05-07T10:29:01;33.80;49.50
31379;DHT22;61664;48.112;11.662;2023-05-07T10:31:49;33.80;47.10
31379;DHT22;61664;48.112;11.662;2023-05-07T10:34:32;33.80;45.60
31379;DHT22;61664;48.112;11.662;2023-05-07T10:37:25;33.60;46.50
31379;DHT22;61664;48.112;11.662;2023-05-07T10:39:52;33.50;48.20
31379;DHT22;61664;48.112;11.662;2023-05-07T10:42:20;33.30;47.70
31379;DHT22;61664;48.112;11.662;2023-05-07T10:44:47;33.10;48.10
31379;DHT22;61664;48.112;11.662;2023-05-07T10:47:16;32.90;47.60
31379;DHT22;61664;48.112;11.662;2023-05-07T10:52:19;32.50;47.60
31379;DHT22;61664;48.112;11.662;2023-05-07T10:57:44;32.20;45.10
31379;DHT22;61664;48.112;11.662;2023-05-07T11:03:04;31.80;43.50
31379;DHT22;61664;48.112;11.662;2023-05-07T11:05:34;31.60;47.60
31379;DHT22;61664;48.112;11.662;2023-05-07T11:08:04;31.50;47.80
31379;DHT22;61664;48.112;11.662;2023-05-07T11:10:54;31.30;48.30
31379;DHT22;61664;48.112;11.662;2023-05-07T11:13:43;31.30;45.70
31379;DHT22;61664;48.112;11.662;2023-05-07T11:16:22;31.30;46.40
31379;DHT22;61664;48.112;11.662;2023-05-07T11:18:54;31.30;45.70
31379;DHT22;61664;48.112;11.662;2023-05-07T11:21:35;31.30;49.20
31379;DHT22;61664;48.112;11.662;2023-05-07T11:24:04;31.30;45.80
31379;DHT22;61664;48.112;11.662;2023-05-07T11:26:49;31.20;49.00
31379;DHT22;61664;48.112;11.662;2023-05-07T11:29:21;31.00;46.60
31379;DHT22;61664;48.112;11.662;2023-05-07T11:31:53;30.90;46.40
31379;DHT22;61664;48.112;11.662;2023-05-07T11:34:23;30.70;46.40
31379;DHT22;61664;48.112;11.662;2023-05-07T11:36:51;30.50;48.60
31379;DHT22;61664;48.112;11.662;2023-05-07T11:39:31;30.30;49.40
31379;DHT22;61664;48.112;11.662;2023-05-07T11:42:02;30.00;47.30
31379;DHT22;61664;48.112;11.662;2023-05-07T11:44:45;29.90;50.30
31379;DHT22;61664;48.112;11.662;2023-05-07T11:47:22;29.70;47.50
31379;DHT22;61664;48.112;11.662;2023-05-07T11:49:51;29.70;47.60
31379;DHT22;61664;48.112;11.662;2023-05-07T11:52:21;29.60;51.10
31379;DHT22;61664;48.112;11.662;2023-05-07T11:54:57;29.50;51.50
31379;DHT22;61664;48.112;11.662;2023-05-07T11:57:25;29.50;49.50
31379;DHT22;61664;48.112;11.662;2023-05-07T11:59:54;29.40;51.00
31379;DHT22;61664;48.112;11.662;2023-05-07T12:02:21;29.30;51.30
31379;DHT22;61664;48.112;11.662;2023-05-07T12:04:48;29.20;50.80
31379;DHT22;61664;48.112;11.662;2023-05-07T12:07:16;29.10;50.60
31379;DHT22;61664;48.112;11.662;2023-05-07T12:09:44;29.00;50.20
31379;DHT22;61664;48.112;11.662;2023-05-07T12:12:11;28.90;49.70
31379;DHT22;61664;48.112;11.662;2023-05-07T12:14:45;28.70;50.80
31379;DHT22;61664;48.112;11.662;2023-05-07T12:17:13;28.60;49.90
31379;DHT22;61664;48.112;11.662;2023-05-07T12:19:43;28.50;51.50
31379;DHT22;61664;48.112;11.662;2023-05-07T12:22:11;28.50;51.30
31379;DHT22;61664;48.112;11.662;2023-05-07T12:24:49;28.40;51.30
31379;DHT22;61664;48.112;11.662;2023-05-07T12:27:23;28.40;48.20
31379;DHT22;61664;48.112;11.662;2023-05-07T12:29:51;28.40;51.60
31379;DHT22;61664;48.112;11.662;2023-05-07T12:32:19;28.30;52.00
31379;DHT22;61664;48.112;11.662;2023-05-07T12:34:51;28.30;51.40
31379;DHT22;61664;48.112;11.662;2023-05-07T12:37:23;28.30;49.70
31379;DHT22;61664;48.112;11.662;2023-05-07T12:40:11;28.30;50.30
31379;DHT22;61664;48.112;11.662;2023-05-07T12:42:40;28.30;49.70
31379;DHT22;61664;48.112;11.662;2023-05-07T12:45:11;28.30;52.00
31379;DHT22;61664;48.112;11.662;2023-05-07T12:47:44;28.40;50.20
31379;DHT22;61664;48.112;11.662;2023-05-07T12:50:23;28.40;49.70
31379;DHT22;61664;48.112;11.662;2023-05-07T12:52:52;28.40;48.20
31379;DHT22;61664;48.112;11.662;2023-05-07T12:55:19;28.40;51.80
31379;DHT22;61664;48.112;11.662;2023-05-07T12:57:48;28.40;51.30
31379;DHT22;61664;48.112;11.662;2023-05-07T13:00:18;28.40;50.70
31379;DHT22;61664;48.112;11.662;2023-05-07T13:02:59;28.40;51.50
31379;DHT22;61664;48.112;11.662;2023-05-07T13:05:26;28.40;51.20
31379;DHT22;61664;48.112;11.662;2023-05-07T13:07:56;28.40;51.60
31379;DHT22;61664;48.112;11.662;2023-05-07T13:10:25;28.30;49.20
31379;DHT22;61664;48.112;11.662;2023-05-07T13:12:52;28.30;51.40
31379;DHT22;61664;48.112;11.662;2023-05-07T13:15:19;28.30;51.20
31379;DHT22;61664;48.112;11.662;2023-05-07T13:17:49;28.40;51.00
31379;DHT22;61664;48.112;11.662;2023-05-07T13:20:16;28.30;51.40
31379;DHT22;61664;48.112;11.662;2023-05-07T13:22:43;28.40;51.10
31379;DHT22;61664;48.112;11.662;2023-05-07T13:25:10;28.30;51.20
31379;DHT22;61664;48.112;11.662;2023-05-07T13:27:38;28.30;51.40
31379;DHT22;61664;48.112;11.662;2023-05-07T13:30:05;28.40;51.00
31379;DHT22;61664;48.112;11.662;2023-05-07T13:32:33;28.40;50.90
31379;DHT22;61664;48.112;11.662;2023-05-07T13:35:00;28.40;50.50
31379;DHT22;61664;48.112;11.662;2023-05-07T13:37:27;28.40;51.00
31379;DHT22;61664;48.112;11.662;2023-05-07T13:39:54;28.50;51.50
31379;DHT22;61664;48.112;11.662;2023-05-07T13:42:21;28.60;51.80
31379;DHT22;61664;48.112;11.662;2023-05-07T13:44:47;28.80;51.10
31379;DHT22;61664;48.112;11.662;2023-05-07T13:47:14;28.90;51.80
31379;DHT22;61664;48.112;11.662;2023-05-07T13:49:41;29.10;51.30
31379;DHT22;61664;48.112;11.662;2023-05-07T13:52:08;29.20;51.30
31379;DHT22;61664;48.112;11.662;2023-05-07T13:54:35;29.30;50.60
31379;DHT22;61664;48.112;11.662;2023-05-07T13:57:02;29.50;50.60
31379;DHT22;61664;48.112;11.662;2023-05-07T13:59:29;29.60;50.40
31379;DHT22;61664;48.112;11.662;2023-05-07T14:01:56;29.70;49.80
31379;DHT22;61664;48.112;11.662;2023-05-07T14:04:22;29.80;49.80
31379;DHT22;61664;48.112;11.662;2023-05-07T14:06:49;29.90;49.90
31379;DHT22;61664;48.112;11.662;2023-05-07T14:09:16;30.00;50.40
31379;DHT22;61664;48.112;11.662;2023-05-07T14:11:43;30.20;50.20
31379;DHT22;61664;48.112;11.662;2023-05-07T14:14:10;30.40;50.60
31379;DHT22;61664;48.112;11.662;2023-05-07T14:16:37;30.70;50.50
31379;DHT22;61664;48.112;11.662;2023-05-07T14:19:04;31.00;51.00
31379;DHT22;61664;48.112;11.662;2023-05-07T14:21:36;31.30;50.20
31379;DHT22;61664;48.112;11.662;2023-05-07T14:24:06;31.50;50.20
31379;DHT22;61664;48.112;11.662;2023-05-07T14:26:33;31.70;48.80
31379;DHT22;61664;48.112;11.662;2023-05-07T14:29:00;31.70;48.00
31379;DHT22;61664;48.112;11.662;2023-05-07T14:31:27;31.70;47.40
31379;DHT22;61664;48.112;11.662;2023-05-07T14:33:55;31.60;46.80
31379;DHT22;61664;48.112;11.662;2023-05-07T14:36:24;31.40;46.70
31379;DHT22;61664;48.112;11.662;2023-05-07T14:38:53;31.20;47.00
31379;DHT22;61664;48.112;11.662;2023-05-07T14:41:25;31.10;46.80
31379;DHT22;61664;48.112;11.662;2023-05-07T14:43:52;30.90;46.70
31379;DHT22;61664;48.112;11.662;2023-05-07T14:46:19;30.70;46.30
31379;DHT22;61664;48.112;11.662;2023-05-07T14:48:46;30.50;46.10
31379;DHT22;61664;48.112;11.662;2023-05-07T14:51:13;30.20;46.20
31379;DHT22;61664;48.112;11.662;2023-05-07T14:53:41;29.90;45.90
31379;DHT22;61664;48.112;11.662;2023-05-07T14:56:08;29.60;46.30
31379;DHT22;61664;48.112;11.662;2023-05-07T14:58:35;29.40;46.80
31379;DHT22;61664;48.112;11.662;2023-05-07T15:01:03;29.20;47.10
31379;DHT22;61664;48.112;11.662;2023-05-07T15:03:31;29.00;47.10
31379;DHT22;61664;48.112;11.662;2023-05-07T15:05:58;28.80;46.60
31379;DHT22;61664;48.112;11.662;2023-05-07T15:08:27;28.60;46.80
31379;DHT22;61664;48.112;11.662;2023-05-07T15:10:54;28.40;46.90
31379;DHT22;61664;48.112;11.662;2023-05-07T15:13:22;28.20;47.50
31379;DHT22;61664;48.112;11.662;2023-05-07T15:15:49;28.00;47.70
31379;DHT22;61664;48.112;11.662;2023-05-07T15:18:16;27.80;47.60
31379;DHT22;61664;48.112;11.662;2023-05-07T15:20:43;27.70;48.10
31379;DHT22;61664;48.112;11.662;2023-05-07T15:23:10;27.50;48.40
31379;DHT22;61664;48.112;11.662;2023-05-07T15:25:40;27.40;49.00
31379;DHT22;61664;48.112;11.662;2023-05-07T15:28:07;27.40;48.70
31379;DHT22;61664;48.112;11.662;2023-05-07T15:30:35;27.40;50.20
31379;DHT22;61664;48.112;11.662;2023-05-07T15:33:01;27.30;50.60